sensor_id;sensor_type;location;lat;lon;timestamp;temperature;humidity
70726;DHT22;58304;53.104;6.022;2023-03-20T00:01:26;7.10;99.90
70726;DHT22;58304;53.104;6.022;2023-03-20T00:03:54;7.10;99.90
70726;DHT22;58304;53.104;6.022;2023-03-20T00:06:26;7.10;99.90
70726;DHT22;58304;53.104;6.022;2023-03-20T00:08:54;7.10;99.90
70726;DHT22;58304;53.104;6.022;2023-03-20T00:13:58;7.10;99.90
70726;DHT22;58304;53.104;6.022;2023-03-20T00:16:30;7.10;99.90
70726;DHT22;58304;53.104;6.022;2023-03-20T00:18:56;7.10;99.90
70726;DHT22;58304;53.104;6.022;2023-03-20T00:21:23;7.20;99.90
70726;DHT22;58304;53.104;6.022;2023-03-20T00:23:48;7.20;99.90
70726;DHT22;58304;53.104;6.022;2023-03-20T00:26:16;7.20;99.90
70726;DHT22;58304;53.104;6.022;2023-03-20T00:28:46;7.20;99.90
70726;DHT22;58304;53.104;6.022;2023-03-20T00:31:26;7.20;99.90
70726;DHT22;58304;53.104;6.022;2023-03-20T00:33:54;7.20;99.90
70726;DHT22;58304;53.104;6.022;2023-03-20T00:36:20;7.20;99.90
70726;DHT22;58304;53.104;6.022;2023-03-20T00:38:46;7.20;99.90
70726;DHT22;58304;53.104;6.022;2023-03-20T00:41:32;7.20;99.90
70726;DHT22;58304;53.104;6.022;2023-03-20T00:46:46;7.30;99.90
70726;DHT22;58304;53.104;6.022;2023-03-20T00:49:13;7.30;99.90
70726;DHT22;58304;53.104;6.022;2023-03-20T00:51:39;7.30;99.90
70726;DHT22;58304;53.104;6.022;2023-03-20T00:54:08;7.30;99.90
70726;DHT22;58304;53.104;6.022;2023-03-20T00:56:40;7.30;99.90
70726;DHT22;58304;53.104;6.022;2023-03-20T00:59:14;7.30;99.90
70726;DHT22;58304;53.104;6.022;2023-03-20T01:01:41;7.30;99.90
70726;DHT22;58304;53.104;6.022;2023-03-20T01:04:14;7.30;99.90
70726;DHT22;58304;53.104;6.022;2023-03-20T01:06:40;7.30;99.90
70726;DHT22;58304;53.104;6.022;2023-03-20T01:09:05;7.30;99.90
70726;DHT22;58304;53.104;6.022;2023-03-20T01:11:31;7.30;99.90
70726;DHT22;58304;53.104;6.022;2023-03-20T01:13:57;7.30;99.90
70726;DHT22;58304;53.104;6.022;2023-03-20T01:16:24;7.30;99.90
70726;DHT22;58304;53.104;6.022;2023-03-20T01:18:50;7.40;99.90
70726;DHT22;58304;53.104;6.022;2023-03-20T01:21:16;7.30;99.90
70726;DHT22;58304;53.104;6.022;2023-03-20T01:23:42;7.30;99.90
70726;DHT22;58304;53.104;6.022;2023-03-20T01:26:17;7.40;99.90
70726;DHT22;58304;53.104;6.022;2023-03-20T01:28:44;7.40;99.90
70726;DHT22;58304;53.104;6.022;2023-03-20T01:31:10;7.30;99.90
70726;DHT22;58304;53.104;6.022;2023-03-20T01:33:35;7.30;99.90
70726;DHT22;58304;53.104;6.022;2023-03-20T01:36:01;7.40;99.90
70726;DHT22;58304;53.104;6.022;2023-03-20T01:38:27;7.30;99.90
70726;DHT22;58304;53.104;6.022;2023-03-20T01:40:54;7.40;99.90
70726;DHT22;58304;53.104;6.022;2023-03-20T01:43:22;7.40;99.90
70726;DHT22;58304;53.104;6.022;2023-03-20T01:46:15;7.40;99.90
70726;DHT22;58304;53.104;6.022;2023-03-20T01:51:16;7.40;99.90
70726;DHT22;58304;53.104;6.022;2023-03-20T01:53:43;7.40;99.90
70726;DHT22;58304;53.104;6.022;2023-03-20T01:56:12;7.40;99.90
70726;DHT22;58304;53.104;6.022;2023-03-20T01:58:43;7.40;99.90
70726;DHT22;58304;53.104;6.022;2023-03-20T02:01:12;7.40;99.90
70726;DHT22;58304;53.104;6.022;2023-03-20T02:03:39;7.40;99.90
70726;DHT22;58304;53.104;6.022;2023-03-20T02:06:06;7.40;99.90
70726;DHT22;58304;53.104;6.022;2023-03-20T02:08:36;7.40;99.90
70726;DHT22;58304;53.104;6.022;2023-03-20T02:11:05;7.40;99.90
70726;DHT22;58304;53.104;6.022;2023-03-20T02:13:31;7.40;99.90
70726;DHT22;58304;53.104;6.022;2023-03-20T02:16:10;7.40;99.90
70726;DHT22;58304;53.104;6.022;2023-03-20T02:18:37;7.40;99.90
70726;DHT22;58304;53.104;6.022;2023-03-20T02:27:04;7.40;99.90
70726;DHT22;58304;53.104;6.022;2023-03-20T02:29:47;7.40;99.90
70726;DHT22;58304;53.104;6.022;2023-03-20T02:43:47;7.50;99.90
70726;DHT22;58304;53.104;6.022;2023-03-20T02:48:56;7.50;99.90
70726;DHT22;58304;53.104;6.022;2023-03-20T02:51:44;7.50;99.90
70726;DHT22;58304;53.104;6.022;2023-03-20T02:59:56;7.50;99.90
70726;DHT22;58304;53.104;6.022;2023-03-20T03:02:32;7.50;99.90
70726;DHT22;58304;53.104;6.022;2023-03-20T03:05:45;7.50;99.90
70726;DHT22;58304;53.104;6.022;2023-03-20T03:07:53;7.50;99.90
70726;DHT22;58304;53.104;6.022;2023-03-20T03:10:27;7.50;99.90
70726;DHT22;58304;53.104;6.022;2023-03-20T03:12:55;7.60;99.90
70726;DHT22;58304;53.104;6.022;2023-03-20T03:15:35;7.60;99.90
70726;DHT22;58304;53.104;6.022;2023-03-20T03:18:04;7.60;99.90
70726;DHT22;58304;53.104;6.022;2023-03-20T03:20:36;7.60;99.90
70726;DHT22;58304;53.104;6.022;2023-03-20T03:23:03;7.60;99.90
70726;DHT22;58304;53.104;6.022;2023-03-20T03:25:34;7.60;99.90
70726;DHT22;58304;53.104;6.022;2023-03-20T03:28:42;7.60;99.90
70726;DHT22;58304;53.104;6.022;2023-03-20T03:31:11;7.60;99.90
70726;DHT22;58304;53.104;6.022;2023-03-20T03:33:40;7.60;99.90
70726;DHT22;58304;53.104;6.022;2023-03-20T03:36:37;7.60;99.90
70726;DHT22;58304;53.104;6.022;2023-03-20T03:39:30;7.60;99.90
70726;DHT22;58304;53.104;6.022;2023-03-20T03:42:05;7.60;99.90
70726;DHT22;58304;53.104;6.022;2023-03-20T03:44:56;7.60;99.90
70726;DHT22;58304;53.104;6.022;2023-03-20T03:47:33;7.60;99.90
70726;DHT22;58304;53.104;6.022;2023-03-20T03:50:13;7.60;99.90
70726;DHT22;58304;53.104;6.022;2023-03-20T03:52:42;7.60;99.90
70726;DHT22;58304;53.104;6.022;2023-03-20T03:55:21;7.60;99.90
70726;DHT22;58304;53.104;6.022;2023-03-20T03:58:10;7.50;99.90
70726;DHT22;58304;53.104;6.022;2023-03-20T04:00:39;7.50;99.90
70726;DHT22;58304;53.104;6.022;2023-03-20T04:03:06;7.50;99.90
70726;DHT22;58304;53.104;6.022;2023-03-20T04:05:35;7.50;99.90
70726;DHT22;58304;53.104;6.022;2023-03-20T04:08:03;7.50;99.90
70726;DHT22;58304;53.104;6.022;2023-03-20T04:10:30;7.50;99.90
70726;DHT22;58304;53.104;6.022;2023-03-20T04:12:55;7.50;99.90
70726;DHT22;58304;53.104;6.022;2023-03-20T04:15:21;7.50;99.90
70726;DHT22;58304;53.104;6.022;2023-03-20T04:17:47;7.50;99.90
70726;DHT22;58304;53.104;6.022;2023-03-20T04:20:13;7.50;99.90
70726;DHT22;58304;53.104;6.022;2023-03-20T04:22:40;7.50;99.90
70726;DHT22;58304;53.104;6.022;2023-03-20T04:25:08;7.50;99.90
70726;DHT22;58304;53.104;6.022;2023-03-20T04:27:34;7.50;99.90
70726;DHT22;58304;53.104;6.022;2023-03-20T04:30:00;7.50;99.90
70726;DHT22;58304;53.104;6.022;2023-03-20T04:32:26;7.50;99.90
70726;DHT22;58304;53.104;6.022;2023-03-20T04:34:51;7.50;99.90
70726;DHT22;58304;53.104;6.022;2023-03-20T04:37:17;7.50;99.90
70726;DHT22;58304;53.104;6.022;2023-03-20T04:39:43;7.50;99.90
70726;DHT22;58304;53.104;6.022;2023-03-20T04:42:08;7.50;99.90
70726;DHT22;58304;53.104;6.022;2023-03-20T04:44:34;7.40;99.90
70726;DHT22;58304;53.104;6.022;2023-03-20T04:47:00;7.40;99.90
70726;DHT22;58304;53.104;6.022;2023-03-20T04:49:26;7.40;99.90
70726;DHT22;58304;53.104;6.022;2023-03-20T04:51:53;7.40;99.90
70726;DHT22;58304;53.104;6.022;2023-03-20T04:54:18;7.40;99.90
70726;DHT22;58304;53.104;6.022;2023-03-20T04:56:44;7.40;99.90
70726;DHT22;58304;53.104;6.022;2023-03-20T04:59:10;7.40;99.90
70726;DHT22;58304;53.104;6.022;2023-03-20T05:01:35;7.40;99.90
70726;DHT22;58304;53.104;6.022;2023-03-20T05:04:01;7.40;99.90
70726;DHT22;58304;53.104;6.022;2023-03-20T05:06:27;7.30;99.90
70726;DHT22;58304;53.104;6.022;2023-03-20T05:08:52;7.30;99.90
70726;DHT22;58304;53.104;6.022;2023-03-20T05:11:18;7.30;99.90
70726;DHT22;58304;53.104;6.022;2023-03-20T05:13:43;7.30;99.90
70726;DHT22;58304;53.104;6.022;2023-03-20T05:16:09;7.30;99.90
70726;DHT22;58304;53.104;6.022;2023-03-20T05:18:35;7.30;99.90
70726;DHT22;58304;53.104;6.022;2023-03-20T05:21:01;7.30;99.90
70726;DHT22;58304;53.104;6.022;2023-03-20T05:23:27;7.30;99.90
70726;DHT22;58304;53.104;6.022;2023-03-20T05:25:52;7.30;99.90
70726;DHT22;58304;53.104;6.022;2023-03-20T05:28:18;7.30;99.90
70726;DHT22;58304;53.104;6.022;2023-03-20T05:30:44;7.30;99.90
70726;DHT22;58304;53.104;6.022;2023-03-20T05:33:09;7.30;99.90
70726;DHT22;58304;53.104;6.022;2023-03-20T05:35:35;7.30;99.90
70726;DHT22;58304;53.104;6.022;2023-03-20T05:38:00;7.30;99.90
70726;DHT22;58304;53.104;6.022;2023-03-20T05:40:26;7.30;99.90
70726;DHT22;58304;53.104;6.022;2023-03-20T05:42:51;7.30;99.90
70726;DHT22;58304;53.104;6.022;2023-03-20T05:45:17;7.30;99.90
70726;DHT22;58304;53.104;6.022;2023-03-20T05:47:43;7.30;99.90
70726;DHT22;58304;53.104;6.022;2023-03-20T05:50:10;7.30;99.90
70726;DHT22;58304;53.104;6.022;2023-03-20T05:52:36;7.30;99.90
70726;DHT22;58304;53.104;6.022;2023-03-20T05:55:01;7.30;99.90
70726;DHT22;58304;53.104;6.022;2023-03-20T05:57:27;7.30;99.90
70726;DHT22;58304;53.104;6.022;2023-03-20T05:59:52;7.30;99.90
70726;DHT22;58304;53.104;6.022;2023-03-20T06:02:18;7.30;99.90
70726;DHT22;58304;53.104;6.022;2023-03-20T06:04:43;7.30;99.90
70726;DHT22;58304;53.104;6.022;2023-03-20T06:07:10;7.30;99.90
70726;DHT22;58304;53.104;6.022;2023-03-20T06:09:36;7.30;99.90
70726;DHT22;58304;53.104;6.022;2023-03-20T06:12:02;7.30;99.90
70726;DHT22;58304;53.104;6.022;2023-03-20T06:14:27;7.40;99.90
70726;DHT22;58304;53.104;6.022;2023-03-20T06:16:53;7.40;99.90
70726;DHT22;58304;53.104;6.022;2023-03-20T06:19:19;7.40;99.90
70726;DHT22;58304;53.104;6.022;2023-03-20T06:21:46;7.40;99.90
70726;DHT22;58304;53.104;6.022;2023-03-20T06:24:15;7.40;99.90
70726;DHT22;58304;53.104;6.022;2023-03-20T06:26:41;7.50;99.90
70726;DHT22;58304;53.104;6.022;2023-03-20T06:29:06;7.40;99.90
70726;DHT22;58304;53.104;6.022;2023-03-20T06:31:32;7.50;99.90
70726;DHT22;58304;53.104;6.022;2023-03-20T06:33:57;7.50;99.90
70726;DHT22;58304;53.104;6.022;2023-03-20T06:36:23;7.50;99.90
70726;DHT22;58304;53.104;6.022;2023-03-20T06:38:48;7.50;99.90
70726;DHT22;58304;53.104;6.022;2023-03-20T06:41:14;7.50;99.90
70726;DHT22;58304;53.104;6.022;2023-03-20T06:43:40;7.50;99.90
70726;DHT22;58304;53.104;6.022;2023-03-20T06:46:07;7.50;99.90
70726;DHT22;58304;53.104;6.022;2023-03-20T06:48:33;7.50;99.90
70726;DHT22;58304;53.104;6.022;2023-03-20T06:50:58;7.60;99.90
70726;DHT22;58304;53.104;6.022;2023-03-20T06:53:24;7.60;99.90
70726;DHT22;58304;53.104;6.022;2023-03-20T06:55:51;7.60;99.90
70726;DHT22;58304;53.104;6.022;2023-03-20T06:58:16;7.60;99.90
70726;DHT22;58304;53.104;6.022;2023-03-20T07:00:42;7.60;99.90
70726;DHT22;58304;53.104;6.022;2023-03-20T07:03:08;7.70;99.90
70726;DHT22;58304;53.104;6.022;2023-03-20T07:05:34;7.70;99.90
70726;DHT22;58304;53.104;6.022;2023-03-20T07:08:00;7.80;99.90
70726;DHT22;58304;53.104;6.022;2023-03-20T07:10:25;7.80;99.90
70726;DHT22;58304;53.104;6.022;2023-03-20T07:12:51;7.90;99.90
70726;DHT22;58304;53.104;6.022;2023-03-20T07:15:17;7.90;99.90
70726;DHT22;58304;53.104;6.022;2023-03-20T07:17:43;8.00;99.90
70726;DHT22;58304;53.104;6.022;2023-03-20T07:20:08;8.00;99.90
70726;DHT22;58304;53.104;6.022;2023-03-20T07:22:34;8.10;99.90
70726;DHT22;58304;53.104;6.022;2023-03-20T07:25:00;8.20;99.90
70726;DHT22;58304;53.104;6.022;2023-03-20T07:27:25;8.20;99.90
70726;DHT22;58304;53.104;6.022;2023-03-20T07:29:51;8.20;99.90
70726;DHT22;58304;53.104;6.022;2023-03-20T07:32:18;8.20;99.90
70726;DHT22;58304;53.104;6.022;2023-03-20T07:34:43;8.20;99.90
70726;DHT22;58304;53.104;6.022;2023-03-20T07:37:09;8.20;99.90
70726;DHT22;58304;53.104;6.022;2023-03-20T07:39:35;8.30;99.90
70726;DHT22;58304;53.104;6.022;2023-03-20T07:42:02;8.30;99.90
70726;DHT22;58304;53.104;6.022;2023-03-20T07:44:27;8.40;99.90
70726;DHT22;58304;53.104;6.022;2023-03-20T07:46:52;8.40;99.90
70726;DHT22;58304;53.104;6.022;2023-03-20T07:49:18;8.40;99.90
70726;DHT22;58304;53.104;6.022;2023-03-20T07:51:44;8.40;99.90
70726;DHT22;58304;53.104;6.022;2023-03-20T07:54:09;8.40;99.90
70726;DHT22;58304;53.104;6.022;2023-03-20T07:56:35;8.40;99.90
70726;DHT22;58304;53.104;6.022;2023-03-20T07:59:01;8.40;99.90
70726;DHT22;58304;53.104;6.022;2023-03-20T08:01:26;8.50;99.90
70726;DHT22;58304;53.104;6.022;2023-03-20T08:03:52;8.40;99.90
70726;DHT22;58304;53.104;6.022;2023-03-20T08:06:18;8.50;99.90
70726;DHT22;58304;53.104;6.022;2023-03-20T08:08:43;8.50;99.90
70726;DHT22;58304;53.104;6.022;2023-03-20T08:11:09;8.50;99.90
70726;DHT22;58304;53.104;6.022;2023-03-20T08:13:36;8.60;99.90
70726;DHT22;58304;53.104;6.022;2023-03-20T08:16:01;8.60;99.90
70726;DHT22;58304;53.104;6.022;2023-03-20T08:18:27;8.70;99.90
70726;DHT22;58304;53.104;6.022;2023-03-20T08:20:52;8.70;99.90
70726;DHT22;58304;53.104;6.022;2023-03-20T08:23:18;8.70;99.90
70726;DHT22;58304;53.104;6.022;2023-03-20T08:25:50;8.70;99.90
70726;DHT22;58304;53.104;6.022;2023-03-20T08:28:16;8.70;99.90
70726;DHT22;58304;53.104;6.022;2023-03-20T08:30:42;8.70;99.90
70726;DHT22;58304;53.104;6.022;2023-03-20T08:33:08;8.80;99.90
70726;DHT22;58304;53.104;6.022;2023-03-20T08:35:34;8.80;99.90
70726;DHT22;58304;53.104;6.022;2023-03-20T08:38:00;8.90;99.90
70726;DHT22;58304;53.104;6.022;2023-03-20T08:40:26;8.90;99.90
70726;DHT22;58304;53.104;6.022;2023-03-20T08:42:51;8.90;99.90
70726;DHT22;58304;53.104;6.022;2023-03-20T08:45:17;9.00;99.90
70726;DHT22;58304;53.104;6.022;2023-03-20T08:47:42;9.00;99.90
70726;DHT22;58304;53.104;6.022;2023-03-20T08:50:08;9.10;99.90
70726;DHT22;58304;53.104;6.022;2023-03-20T08:52:34;9.10;99.90
70726;DHT22;58304;53.104;6.022;2023-03-20T08:54:59;9.10;99.90
70726;DHT22;58304;53.104;6.022;2023-03-20T08:57:25;9.20;99.90
70726;DHT22;58304;53.104;6.022;2023-03-20T08:59:51;9.20;99.90
70726;DHT22;58304;53.104;6.022;2023-03-20T09:02:16;9.30;99.90
70726;DHT22;58304;53.104;6.022;2023-03-20T09:04:42;9.40;99.90
70726;DHT22;58304;53.104;6.022;2023-03-20T09:07:07;9.40;99.90
70726;DHT22;58304;53.104;6.022;2023-03-20T09:09:33;9.50;99.90
70726;DHT22;58304;53.104;6.022;2023-03-20T09:11:59;9.40;99.90
70726;DHT22;58304;53.104;6.022;2023-03-20T09:14:26;9.40;99.90
70726;DHT22;58304;53.104;6.022;2023-03-20T09:16:52;9.40;99.90
70726;DHT22;58304;53.104;6.022;2023-03-20T09:19:17;9.40;99.90
70726;DHT22;58304;53.104;6.022;2023-03-20T09:21:43;9.50;99.90
70726;DHT22;58304;53.104;6.022;2023-03-20T09:24:08;9.50;99.90
70726;DHT22;58304;53.104;6.022;2023-03-20T09:26:35;9.50;99.90
70726;DHT22;58304;53.104;6.022;2023-03-20T09:29:01;9.60;99.90
70726;DHT22;58304;53.104;6.022;2023-03-20T09:31:26;9.70;99.90
70726;DHT22;58304;53.104;6.022;2023-03-20T09:33:52;9.80;99.90
70726;DHT22;58304;53.104;6.022;2023-03-20T09:36:17;9.80;99.90
70726;DHT22;58304;53.104;6.022;2023-03-20T09:38:43;9.90;99.90
70726;DHT22;58304;53.104;6.022;2023-03-20T09:41:14;10.10;99.90
70726;DHT22;58304;53.104;6.022;2023-03-20T09:46:11;10.20;99.90
70726;DHT22;58304;53.104;6.022;2023-03-20T09:51:37;10.10;99.90
70726;DHT22;58304;53.104;6.022;2023-03-20T09:56:51;10.00;99.90
70726;DHT22;58304;53.104;6.022;2023-03-20T09:59:17;10.00;99.90
70726;DHT22;58304;53.104;6.022;2023-03-20T10:01:47;10.00;99.90
70726;DHT22;58304;53.104;6.022;2023-03-20T10:04:14;9.90;99.90
70726;DHT22;58304;53.104;6.022;2023-03-20T10:06:39;9.80;99.90
70726;DHT22;58304;53.104;6.022;2023-03-20T10:11:55;10.00;99.90
70726;DHT22;58304;53.104;6.022;2023-03-20T10:14:29;9.90;99.90
70726;DHT22;58304;53.104;6.022;2023-03-20T10:19:30;9.90;99.90
70726;DHT22;58304;53.104;6.022;2023-03-20T10:24:41;10.00;99.90
70726;DHT22;58304;53.104;6.022;2023-03-20T10:27:19;9.90;99.90
70726;DHT22;58304;53.104;6.022;2023-03-20T10:32:27;10.00;99.90
70726;DHT22;58304;53.104;6.022;2023-03-20T10:42:29;9.90;99.90
70726;DHT22;58304;53.104;6.022;2023-03-20T10:44:58;10.00;99.90
70726;DHT22;58304;53.104;6.022;2023-03-20T10:47:25;9.90;99.90
70726;DHT22;58304;53.104;6.022;2023-03-20T10:49:53;9.90;99.90
70726;DHT22;58304;53.104;6.022;2023-03-20T10:52:27;9.90;99.90
70726;DHT22;58304;53.104;6.022;2023-03-20T10:54:54;9.90;99.90
70726;DHT22;58304;53.104;6.022;2023-03-20T10:57:22;10.00;99.90
70726;DHT22;58304;53.104;6.022;2023-03-20T10:59:51;10.00;99.90
70726;DHT22;58304;53.104;6.022;2023-03-20T11:02:19;10.00;99.90
70726;DHT22;58304;53.104;6.022;2023-03-20T11:04:46;10.00;99.90
70726;DHT22;58304;53.104;6.022;2023-03-20T11:12:31;9.90;99.90
70726;DHT22;58304;53.104;6.022;2023-03-20T11:14:58;10.00;99.90
70726;DHT22;58304;53.104;6.022;2023-03-20T11:17:27;9.90;99.90
70726;DHT22;58304;53.104;6.022;2023-03-20T11:19:53;9.80;99.90
70726;DHT22;58304;53.104;6.022;2023-03-20T11:22:23;9.80;99.90
70726;DHT22;58304;53.104;6.022;2023-03-20T11:24:59;9.80;99.90
70726;DHT22;58304;53.104;6.022;2023-03-20T11:27:29;9.80;99.90
70726;DHT22;58304;53.104;6.022;2023-03-20T11:29:55;9.80;99.90
70726;DHT22;58304;53.104;6.022;2023-03-20T11:34:49;9.70;99.90
70726;DHT22;58304;53.104;6.022;2023-03-20T11:37:28;9.70;99.90
70726;DHT22;58304;53.104;6.022;2023-03-20T11:40:36;9.60;99.90
70726;DHT22;58304;53.104;6.022;2023-03-20T11:45:29;9.50;99.90
70726;DHT22;58304;53.104;6.022;2023-03-20T11:47:59;9.50;99.90
70726;DHT22;58304;53.104;6.022;2023-03-20T11:50:32;9.40;99.90
70726;DHT22;58304;53.104;6.022;2023-03-20T11:52:59;9.40;99.90
70726;DHT22;58304;53.104;6.022;2023-03-20T11:55:29;9.40;99.90
70726;DHT22;58304;53.104;6.022;2023-03-20T11:57:57;9.40;99.90
70726;DHT22;58304;53.104;6.022;2023-03-20T12:00:24;9.30;99.90
70726;DHT22;58304;53.104;6.022;2023-03-20T12:02:50;9.30;99.90
70726;DHT22;58304;53.104;6.022;2023-03-20T12:05:19;9.20;99.90
70726;DHT22;58304;53.104;6.022;2023-03-20T12:07:48;9.20;99.90
70726;DHT22;58304;53.104;6.022;2023-03-20T12:10:16;9.20;99.90
70726;DHT22;58304;53.104;6.022;2023-03-20T12:17:55;9.10;99.90
70726;DHT22;58304;53.104;6.022;2023-03-20T12:20:29;9.10;99.90
70726;DHT22;58304;53.104;6.022;2023-03-20T12:22:59;9.10;99.90
70726;DHT22;58304;53.104;6.022;2023-03-20T12:25:27;9.10;99.90
70726;DHT22;58304;53.104;6.022;2023-03-20T12:28:02;9.20;99.90
70726;DHT22;58304;53.104;6.022;2023-03-20T12:30:35;9.20;99.90
70726;DHT22;58304;53.104;6.022;2023-03-20T12:33:11;9.20;99.90
70726;DHT22;58304;53.104;6.022;2023-03-20T12:35:41;9.10;99.90
70726;DHT22;58304;53.104;6.022;2023-03-20T12:38:13;9.20;99.90
70726;DHT22;58304;53.104;6.022;2023-03-20T12:44:47;9.30;99.90
70726;DHT22;58304;53.104;6.022;2023-03-20T12:47:10;9.30;99.90
70726;DHT22;58304;53.104;6.022;2023-03-20T12:52:10;9.20;99.90
70726;DHT22;58304;53.104;6.022;2023-03-20T12:57:25;9.20;99.90
70726;DHT22;58304;53.104;6.022;2023-03-20T13:02:56;9.30;99.90
70726;DHT22;58304;53.104;6.022;2023-03-20T13:05:32;9.20;99.90
70726;DHT22;58304;53.104;6.022;2023-03-20T13:18:09;9.20;99.90
70726;DHT22;58304;53.104;6.022;2023-03-20T13:20:45;9.20;99.90
70726;DHT22;58304;53.104;6.022;2023-03-20T13:25:51;9.10;99.90
70726;DHT22;58304;53.104;6.022;2023-03-20T13:28:22;9.10;99.90
70726;DHT22;58304;53.104;6.022;2023-03-20T13:30:54;9.20;99.90
70726;DHT22;58304;53.104;6.022;2023-03-20T13:33:35;9.20;99.90
70726;DHT22;58304;53.104;6.022;2023-03-20T13:38:38;9.10;99.90
70726;DHT22;58304;53.104;6.022;2023-03-20T13:41:06;9.10;99.90
70726;DHT22;58304;53.104;6.022;2023-03-20T13:43:46;9.20;99.90
70726;DHT22;58304;53.104;6.022;2023-03-20T13:46:23;9.10;99.90
70726;DHT22;58304;53.104;6.022;2023-03-20T13:48:50;9.10;99.90
70726;DHT22;58304;53.104;6.022;2023-03-20T13:53:52;9.00;99.90
70726;DHT22;58304;53.104;6.022;2023-03-20T13:58:58;9.00;99.90
70726;DHT22;58304;53.104;6.022;2023-03-20T14:03:57;9.10;99.90
70726;DHT22;58304;53.104;6.022;2023-03-20T14:08:55;9.10;99.90
70726;DHT22;58304;53.104;6.022;2023-03-20T14:14:07;9.20;99.90
70726;DHT22;58304;53.104;6.022;2023-03-20T14:16:36;9.20;99.90
70726;DHT22;58304;53.104;6.022;2023-03-20T14:19:06;9.20;99.90
70726;DHT22;58304;53.104;6.022;2023-03-20T14:21:32;9.20;99.90
70726;DHT22;58304;53.104;6.022;2023-03-20T14:24:05;9.20;99.90
70726;DHT22;58304;53.104;6.022;2023-03-20T14:26:36;9.30;99.90
70726;DHT22;58304;53.104;6.022;2023-03-20T14:31:34;9.30;99.90
70726;DHT22;58304;53.104;6.022;2023-03-20T14:47:01;9.40;99.90
70726;DHT22;58304;53.104;6.022;2023-03-20T14:52:09;9.40;99.90
70726;DHT22;58304;53.104;6.022;2023-03-20T14:54:38;9.30;99.90
70726;DHT22;58304;53.104;6.022;2023-03-20T14:57:08;9.40;99.90
70726;DHT22;58304;53.104;6.022;2023-03-20T14:59:34;9.40;99.90
70726;DHT22;58304;53.104;6.022;2023-03-20T15:02:00;9.40;99.90
70726;DHT22;58304;53.104;6.022;2023-03-20T15:04:33;9.40;99.90
70726;DHT22;58304;53.104;6.022;2023-03-20T15:07:04;9.30;99.90
70726;DHT22;58304;53.104;6.022;2023-03-20T15:09:32;9.30;99.90
70726;DHT22;58304;53.104;6.022;2023-03-20T15:11:59;9.30;99.90
70726;DHT22;58304;53.104;6.022;2023-03-20T15:14:30;9.20;99.90
70726;DHT22;58304;53.104;6.022;2023-03-20T15:16:58;9.20;99.90
70726;DHT22;58304;53.104;6.022;2023-03-20T15:19:24;9.20;99.90
70726;DHT22;58304;53.104;6.022;2023-03-20T15:21:50;9.20;99.90
70726;DHT22;58304;53.104;6.022;2023-03-20T15:24:17;9.20;99.90
70726;DHT22;58304;53.104;6.022;2023-03-20T15:26:43;9.20;99.90
70726;DHT22;58304;53.104;6.022;2023-03-20T15:29:10;9.20;99.90
70726;DHT22;58304;53.104;6.022;2023-03-20T15:31:38;9.20;99.90
70726;DHT22;58304;53.104;6.022;2023-03-20T15:34:13;9.20;99.90
70726;DHT22;58304;53.104;6.022;2023-03-20T15:36:41;9.20;99.90
70726;DHT22;58304;53.104;6.022;2023-03-20T15:39:20;9.20;99.90
70726;DHT22;58304;53.104;6.022;2023-03-20T15:41:51;9.20;99.90
70726;DHT22;58304;53.104;6.022;2023-03-20T15:44:18;9.20;99.90
70726;DHT22;58304;53.104;6.022;2023-03-20T15:49:16;9.20;99.90
70726;DHT22;58304;53.104;6.022;2023-03-20T15:51:45;9.10;99.90
70726;DHT22;58304;53.104;6.022;2023-03-20T15:54:12;9.20;99.90
70726;DHT22;58304;53.104;6.022;2023-03-20T15:56:38;9.20;99.90
70726;DHT22;58304;53.104;6.022;2023-03-20T15:59:08;9.10;99.90
70726;DHT22;58304;53.104;6.022;2023-03-20T16:01:35;9.20;99.90
70726;DHT22;58304;53.104;6.022;2023-03-20T16:04:00;9.10;99.90
70726;DHT22;58304;53.104;6.022;2023-03-20T16:06:26;9.10;99.90
70726;DHT22;58304;53.104;6.022;2023-03-20T16:08:55;9.10;99.90
70726;DHT22;58304;53.104;6.022;2023-03-20T16:11:21;9.20;99.90
70726;DHT22;58304;53.104;6.022;2023-03-20T16:13:47;9.20;99.90
70726;DHT22;58304;53.104;6.022;2023-03-20T16:16:15;9.10;99.90
70726;DHT22;58304;53.104;6.022;2023-03-20T16:18:41;9.10;99.90
70726;DHT22;58304;53.104;6.022;2023-03-20T16:21:08;9.10;99.90
70726;DHT22;58304;53.104;6.022;2023-03-20T16:23:41;9.10;99.90
70726;DHT22;58304;53.104;6.022;2023-03-20T16:26:14;9.10;99.90
70726;DHT22;58304;53.104;6.022;2023-03-20T16:28:40;9.10;99.90
70726;DHT22;58304;53.104;6.022;2023-03-20T16:31:07;9.10;99.90
70726;DHT22;58304;53.104;6.022;2023-03-20T16:33:33;9.00;99.90
70726;DHT22;58304;53.104;6.022;2023-03-20T16:35:59;9.10;99.90
70726;DHT22;58304;53.104;6.022;2023-03-20T16:38:27;9.00;99.90
70726;DHT22;58304;53.104;6.022;2023-03-20T16:40:53;9.00;99.90
70726;DHT22;58304;53.104;6.022;2023-03-20T16:43:22;9.00;99.90
70726;DHT22;58304;53.104;6.022;2023-03-20T16:45:52;9.00;99.90
70726;DHT22;58304;53.104;6.022;2023-03-20T16:50:47;9.00;99.90
70726;DHT22;58304;53.104;6.022;2023-03-20T16:53:17;9.00;99.90
70726;DHT22;58304;53.104;6.022;2023-03-20T16:55:48;9.00;99.90
70726;DHT22;58304;53.104;6.022;2023-03-20T16:58:15;9.00;99.90
70726;DHT22;58304;53.104;6.022;2023-03-20T17:00:59;8.90;99.90
70726;DHT22;58304;53.104;6.022;2023-03-20T17:03:28;8.90;99.90
70726;DHT22;58304;53.104;6.022;2023-03-20T17:08:28;9.00;99.90
70726;DHT22;58304;53.104;6.022;2023-03-20T17:10:55;8.90;99.90
70726;DHT22;58304;53.104;6.022;2023-03-20T17:13:21;9.00;99.90
70726;DHT22;58304;53.104;6.022;2023-03-20T17:15:47;8.90;99.90
70726;DHT22;58304;53.104;6.022;2023-03-20T17:18:12;8.90;99.90
70726;DHT22;58304;53.104;6.022;2023-03-20T17:20:38;8.90;99.90
70726;DHT22;58304;53.104;6.022;2023-03-20T17:23:05;8.80;99.90
70726;DHT22;58304;53.104;6.022;2023-03-20T17:25:30;8.80;99.90
70726;DHT22;58304;53.104;6.022;2023-03-20T17:27:56;8.80;99.90
70726;DHT22;58304;53.104;6.022;2023-03-20T17:30:22;8.80;99.90
70726;DHT22;58304;53.104;6.022;2023-03-20T17:32:49;8.80;99.90
70726;DHT22;58304;53.104;6.022;2023-03-20T17:35:15;8.80;99.90
70726;DHT22;58304;53.104;6.022;2023-03-20T17:37:40;8.80;99.90
70726;DHT22;58304;53.104;6.022;2023-03-20T17:40:07;8.80;99.90
70726;DHT22;58304;53.104;6.022;2023-03-20T17:42:35;8.80;99.90
70726;DHT22;58304;53.104;6.022;2023-03-20T17:45:04;8.80;99.90
70726;DHT22;58304;53.104;6.022;2023-03-20T17:47:29;8.80;99.90
70726;DHT22;58304;53.104;6.022;2023-03-20T17:49:55;8.80;99.90
70726;DHT22;58304;53.104;6.022;2023-03-20T17:52:22;8.80;99.90
70726;DHT22;58304;53.104;6.022;2023-03-20T17:54:48;8.80;99.90
70726;DHT22;58304;53.104;6.022;2023-03-20T17:57:26;8.80;99.90
70726;DHT22;58304;53.104;6.022;2023-03-20T17:59:55;8.80;99.90
70726;DHT22;58304;53.104;6.022;2023-03-20T18:02:21;8.80;99.90
70726;DHT22;58304;53.104;6.022;2023-03-20T18:04:46;8.70;99.90
70726;DHT22;58304;53.104;6.022;2023-03-20T18:07:12;8.80;99.90
70726;DHT22;58304;53.104;6.022;2023-03-20T18:09:38;8.70;99.90
70726;DHT22;58304;53.104;6.022;2023-03-20T18:12:05;8.70;99.90
70726;DHT22;58304;53.104;6.022;2023-03-20T18:14:30;8.70;99.90